createdAt,value
2018-12-05T00:00:25.263Z,0.00
2018-12-05T00:01:25.227Z,0.00
2018-12-05T00:02:25.183Z,0.00
2018-12-05T00:03:25.135Z,0.00
2018-12-05T00:04:25.099Z,0.00
2018-12-05T00:05:25.041Z,0.00
2018-12-05T00:06:24.983Z,0.00
2018-12-05T00:07:24.952Z,0.00
2018-12-05T00:08:24.896Z,0.00
2018-12-05T00:09:24.870Z,0.00
2018-12-05T00:10:24.804Z,0.00
2018-12-05T00:11:24.760Z,0.00
2018-12-05T00:12:24.724Z,0.00
2018-12-05T00:13:24.682Z,0.00
2018-12-05T00:14:24.639Z,0.00
2018-12-05T00:15:24.639Z,0.00
2018-12-05T00:16:24.547Z,0.00
2018-12-05T00:17:24.545Z,0.00
2018-12-05T00:18:24.468Z,0.00
2018-12-05T00:19:24.423Z,0.00
2018-12-05T00:20:24.366Z,0.00
2018-12-05T00:21:24.312Z,0.00
2018-12-05T00:22:24.280Z,0.00
2018-12-05T00:23:24.236Z,0.00
2018-12-05T00:24:24.200Z,0.00
2018-12-05T00:25:24.142Z,0.00
2018-12-05T00:26:24.089Z,0.00
2018-12-05T00:27:24.068Z,0.00
2018-12-05T00:28:24.000Z,0.00
2018-12-05T00:29:23.976Z,0.00
2018-12-05T00:30:23.924Z,0.00
2018-12-05T00:31:23.878Z,0.00
2018-12-05T00:32:23.843Z,0.00
2018-12-05T00:33:23.798Z,0.00
2018-12-05T00:34:23.752Z,0.00
2018-12-05T00:35:23.695Z,0.00
2018-12-05T00:36:23.655Z,0.00
2018-12-05T00:37:23.609Z,0.00
2018-12-05T00:38:23.564Z,0.00
2018-12-05T00:39:23.507Z,0.00
2018-12-05T00:40:23.471Z,0.00
2018-12-05T00:41:23.433Z,0.00
2018-12-05T00:42:23.374Z,0.00
2018-12-05T00:43:23.337Z,0.00
2018-12-05T00:44:23.293Z,0.00
2018-12-05T00:45:23.260Z,0.00
2018-12-05T00:46:23.216Z,0.00
2018-12-05T00:47:23.171Z,0.00
2018-12-05T00:48:23.126Z,0.00
2018-12-05T00:49:23.063Z,0.00
2018-12-05T00:50:23.037Z,0.00
2018-12-05T00:51:22.983Z,0.00
2018-12-05T00:52:22.925Z,0.00
2018-12-05T00:53:22.902Z,0.00
2018-12-05T00:54:22.844Z,0.00
2018-12-05T00:55:22.804Z,0.00
2018-12-05T00:56:22.749Z,0.00
2018-12-05T00:57:22.727Z,0.00
2018-12-05T00:58:22.678Z,0.00
2018-12-05T00:59:22.620Z,0.00
2018-12-05T01:00:22.602Z,0.00
2018-12-05T01:01:22.535Z,0.00
2018-12-05T01:02:22.485Z,0.00
2018-12-05T01:03:22.444Z,0.00
2018-12-05T01:04:22.408Z,0.00
2018-12-05T01:05:22.364Z,0.00
2018-12-05T01:06:22.319Z,0.00
2018-12-05T01:07:22.265Z,0.00
2018-12-05T01:08:22.208Z,0.00
2018-12-05T01:09:22.171Z,0.00
2018-12-05T01:10:22.127Z,0.00
2018-12-05T01:11:22.073Z,0.00
2018-12-05T01:12:22.041Z,0.00
2018-12-05T01:13:21.992Z,0.00
2018-12-05T01:14:21.938Z,0.00
2018-12-05T01:15:21.904Z,0.00
2018-12-05T01:16:21.848Z,0.00
2018-12-05T01:17:21.812Z,0.00
2018-12-05T01:18:21.767Z,0.00
2018-12-05T01:19:21.722Z,0.00
2018-12-05T01:20:21.693Z,0.00
2018-12-05T01:21:21.645Z,0.00
2018-12-05T01:22:21.590Z,0.00
2018-12-05T01:23:21.542Z,0.00
2018-12-05T01:24:21.510Z,0.00
2018-12-05T01:25:21.447Z,0.00
2018-12-05T01:26:21.399Z,0.00
2018-12-05T01:27:21.375Z,0.00
2018-12-05T01:28:21.330Z,0.00
2018-12-05T01:29:21.285Z,0.00
2018-12-05T01:30:21.240Z,0.00
2018-12-05T01:31:21.177Z,0.00
2018-12-05T01:32:21.138Z,0.00
2018-12-05T01:33:21.093Z,0.00
2018-12-05T01:34:21.060Z,0.00
2018-12-05T01:35:21.007Z,0.00
2018-12-05T01:36:20.971Z,0.00
2018-12-05T01:37:20.913Z,0.00
2018-12-05T01:38:20.873Z,0.00
2018-12-05T01:39:20.827Z,0.00
2018-12-05T01:40:20.782Z,0.00
2018-12-05T01:41:20.746Z,0.00
2018-12-05T01:42:20.692Z,0.00
2018-12-05T01:43:20.634Z,0.00
2018-12-05T01:44:20.612Z,0.00
2018-12-05T01:45:20.546Z,0.00
2018-12-05T01:46:20.521Z,0.00
2018-12-05T01:47:20.468Z,0.00
2018-12-05T01:48:20.418Z,0.00
2018-12-05T01:49:20.377Z,0.00
2018-12-05T01:50:20.332Z,0.00
2018-12-05T01:51:20.274Z,0.00
2018-12-05T01:52:20.230Z,0.00
2018-12-05T01:53:20.205Z,0.00
2018-12-05T01:54:20.146Z,0.00
2018-12-05T01:55:20.107Z,0.00
2018-12-05T01:56:20.070Z,0.00
2018-12-05T01:57:20.025Z,0.00
2018-12-05T01:58:19.980Z,0.00
2018-12-05T01:59:19.927Z,0.00
2018-12-05T02:00:19.868Z,0.00
2018-12-05T02:01:19.847Z,0.00
2018-12-05T02:02:19.779Z,0.00
2018-12-05T02:03:19.734Z,0.00
2018-12-05T02:04:19.688Z,0.00
2018-12-05T02:05:19.656Z,0.00
2018-12-05T02:06:19.599Z,0.00
2018-12-05T02:07:19.574Z,0.00
2018-12-05T02:08:19.531Z,0.00
2018-12-05T02:09:19.484Z,0.00
2018-12-05T02:10:19.426Z,0.00
2018-12-05T02:11:19.374Z,0.00
2018-12-05T02:12:19.340Z,0.00
2018-12-05T02:13:19.295Z,0.00
2018-12-05T02:14:19.237Z,0.00
2018-12-05T02:15:19.192Z,0.00
2018-12-05T02:16:19.168Z,0.00
2018-12-05T02:17:19.112Z,0.00
2018-12-05T02:18:19.078Z,0.00
2018-12-05T02:19:19.011Z,0.00
2018-12-05T02:20:18.967Z,0.00
2018-12-05T02:21:18.933Z,0.00
2018-12-05T02:22:18.884Z,0.00
2018-12-05T02:23:18.850Z,0.00
2018-12-05T02:24:18.793Z,0.00
2018-12-05T02:25:18.752Z,0.00
2018-12-05T02:26:18.703Z,0.00
2018-12-05T02:27:18.648Z,0.00
2018-12-05T02:28:18.620Z,0.00
2018-12-05T02:29:18.567Z,0.00
2018-12-05T02:30:18.536Z,0.00
2018-12-05T02:31:18.477Z,0.00
2018-12-05T02:32:18.432Z,0.00
2018-12-05T02:33:18.393Z,0.00
2018-12-05T02:34:18.341Z,0.00
2018-12-05T02:35:18.287Z,0.00
2018-12-05T02:36:18.256Z,0.00
2018-12-05T02:37:18.218Z,0.00
2018-12-05T02:38:18.154Z,0.00
2018-12-05T02:39:18.109Z,0.00
2018-12-05T02:40:18.071Z,0.00
2018-12-05T02:41:18.038Z,0.00
2018-12-05T02:42:17.974Z,0.00
2018-12-05T02:43:17.942Z,0.00
2018-12-05T02:44:17.893Z,0.00
2018-12-05T02:45:17.835Z,0.00
2018-12-05T02:46:17.789Z,0.00
2018-12-05T02:47:17.768Z,0.00
2018-12-05T02:48:17.708Z,0.00
2018-12-05T02:49:17.675Z,0.00
2018-12-05T02:50:17.629Z,0.00
2018-12-05T02:51:17.563Z,0.00
2018-12-05T02:52:17.530Z,0.00
2018-12-05T02:53:17.480Z,0.00
2018-12-05T02:54:17.448Z,0.00
2018-12-05T02:55:17.402Z,0.00
2018-12-05T02:56:17.345Z,0.00
2018-12-05T02:57:17.299Z,0.00
2018-12-05T02:58:17.259Z,0.00
2018-12-05T02:59:17.212Z,0.00
2018-12-05T03:00:17.167Z,0.00
2018-12-05T03:01:17.109Z,0.00
2018-12-05T03:02:17.086Z,0.00
2018-12-05T03:03:17.031Z,0.00
2018-12-05T03:04:16.995Z,0.00
2018-12-05T03:05:16.950Z,0.00
2018-12-05T03:06:16.891Z,0.00
2018-12-05T03:07:16.861Z,0.00
2018-12-05T03:08:16.806Z,0.00
2018-12-05T03:09:16.754Z,0.00
2018-12-05T03:10:16.722Z,0.00
2018-12-05T03:11:16.677Z,0.00
2018-12-05T03:12:16.609Z,0.00
2018-12-05T03:13:16.577Z,0.00
2018-12-05T03:14:16.539Z,0.00
2018-12-05T03:15:16.486Z,0.00
2018-12-05T03:16:16.450Z,0.00
2018-12-05T03:17:16.383Z,0.00
2018-12-05T03:18:16.345Z,0.00
2018-12-05T03:19:16.313Z,0.00
2018-12-05T03:20:16.267Z,0.00
2018-12-05T03:21:16.227Z,0.00
2018-12-05T03:22:16.155Z,0.00
2018-12-05T03:23:16.132Z,0.00
2018-12-05T03:24:16.077Z,0.00
2018-12-05T03:25:16.241Z,0.00
2018-12-05T03:26:15.977Z,0.00
2018-12-05T03:27:15.943Z,0.00
2018-12-05T03:28:15.891Z,0.00
2018-12-05T03:29:15.846Z,0.00
2018-12-05T03:30:15.815Z,0.00
2018-12-05T03:31:15.761Z,0.00
2018-12-05T03:32:15.718Z,0.00
2018-12-05T03:33:15.682Z,0.00
2018-12-05T03:34:15.623Z,0.00
2018-12-05T03:35:15.565Z,0.00
2018-12-05T03:36:15.532Z,0.00
2018-12-05T03:37:15.495Z,0.00
2018-12-05T03:38:15.436Z,0.00
2018-12-05T03:39:15.386Z,0.00
2018-12-05T03:40:15.369Z,0.00
2018-12-05T03:41:15.304Z,0.00
2018-12-05T03:42:15.267Z,0.00
2018-12-05T03:43:15.216Z,0.00
2018-12-05T03:44:15.177Z,0.00
2018-12-05T03:45:15.312Z,0.00
2018-12-05T03:46:15.077Z,0.00
2018-12-05T03:47:15.023Z,0.00
2018-12-05T03:48:14.995Z,0.00
2018-12-05T03:49:14.949Z,0.00
2018-12-05T03:50:14.891Z,0.00
2018-12-05T03:51:14.862Z,0.00
2018-12-05T03:52:14.801Z,0.00
2018-12-05T03:53:14.767Z,0.00
2018-12-05T03:54:14.709Z,0.00
2018-12-05T03:55:14.668Z,0.00
2018-12-05T03:56:14.618Z,0.00
2018-12-05T03:57:14.572Z,0.00
2018-12-05T03:58:14.531Z,0.00
2018-12-05T03:59:14.482Z,0.00
2018-12-05T04:00:14.449Z,0.00
2018-12-05T04:01:14.396Z,0.00
2018-12-05T04:02:14.358Z,0.00
2018-12-05T04:03:14.318Z,0.00
2018-12-05T04:04:14.260Z,0.00
2018-12-05T04:05:14.402Z,0.00
2018-12-05T04:06:14.176Z,0.00
2018-12-05T04:07:14.122Z,0.00
2018-12-05T04:08:14.072Z,0.00
2018-12-05T04:09:14.018Z,0.00
2018-12-05T04:10:13.983Z,0.00
2018-12-05T04:11:13.948Z,0.00
2018-12-05T04:12:13.891Z,0.00
2018-12-05T04:13:13.836Z,0.00
2018-12-05T04:14:13.811Z,0.00
2018-12-05T04:15:13.748Z,0.00
2018-12-05T04:16:13.700Z,0.00
2018-12-05T04:17:13.675Z,0.00
2018-12-05T04:18:13.610Z,0.00
2018-12-05T04:19:13.563Z,0.00
2018-12-05T04:20:13.517Z,0.00
2018-12-05T04:21:13.485Z,0.00
2018-12-05T04:22:13.436Z,0.00
2018-12-05T04:23:13.388Z,0.00
2018-12-05T04:24:13.356Z,0.00
2018-12-05T04:25:13.303Z,0.00
2018-12-05T04:26:13.244Z,0.00
2018-12-05T04:27:13.206Z,0.00
2018-12-05T04:28:13.165Z,0.00
2018-12-05T04:29:13.108Z,0.00
2018-12-05T04:30:13.070Z,0.00
2018-12-05T04:31:13.038Z,0.00
2018-12-05T04:32:12.979Z,0.00
2018-12-05T04:33:12.933Z,0.00
2018-12-05T04:34:12.888Z,0.00
2018-12-05T04:35:12.842Z,0.00
2018-12-05T04:36:12.788Z,0.00
2018-12-05T04:37:12.760Z,0.00
2018-12-05T04:38:12.705Z,0.00
2018-12-05T04:39:12.660Z,0.00
2018-12-05T04:40:12.627Z,0.00
2018-12-05T04:41:12.573Z,0.00
2018-12-05T04:42:12.536Z,0.00
2018-12-05T04:43:12.478Z,0.00
2018-12-05T04:44:12.432Z,0.00
2018-12-05T04:45:12.394Z,0.00
2018-12-05T04:46:12.345Z,0.00
2018-12-05T04:47:12.287Z,0.00
2018-12-05T04:48:12.252Z,0.00
2018-12-05T04:49:12.216Z,0.00
2018-12-05T04:50:12.165Z,0.00
2018-12-05T04:51:12.126Z,0.00
2018-12-05T04:52:12.059Z,0.00
2018-12-05T04:53:12.035Z,0.00
2018-12-05T04:54:11.976Z,0.00
2018-12-05T04:55:11.937Z,0.00
2018-12-05T04:56:11.876Z,0.00
2018-12-05T04:57:11.831Z,0.00
2018-12-05T04:58:11.786Z,0.00
2018-12-05T04:59:11.750Z,0.00
2018-12-05T05:00:11.708Z,0.00
2018-12-05T05:01:11.648Z,0.00
2018-12-05T05:02:11.611Z,0.00
2018-12-05T05:03:11.571Z,0.00
2018-12-05T05:04:11.524Z,0.00
2018-12-05T05:05:11.471Z,0.00
2018-12-05T05:06:11.428Z,0.00
2018-12-05T05:07:11.387Z,0.00
2018-12-05T05:08:11.357Z,0.00
2018-12-05T05:09:11.304Z,0.00
2018-12-05T05:10:11.251Z,0.00
2018-12-05T05:11:11.192Z,0.00
2018-12-05T05:12:11.160Z,0.00
2018-12-05T05:13:11.111Z,0.00
2018-12-05T05:14:11.068Z,0.00
2018-12-05T05:15:11.019Z,0.00
2018-12-05T05:16:10.976Z,0.00
2018-12-05T05:17:10.939Z,0.00
2018-12-05T05:18:10.893Z,0.00
2018-12-05T05:19:10.828Z,0.00
2018-12-05T05:20:12.011Z,0.00
2018-12-05T05:21:10.748Z,0.00
2018-12-05T05:22:10.703Z,0.00
2018-12-05T05:23:10.671Z,0.00
2018-12-05T05:24:10.620Z,0.00
2018-12-05T05:25:10.574Z,0.00
2018-12-05T05:26:10.516Z,0.00
2018-12-05T05:27:10.483Z,0.00
2018-12-05T05:28:10.437Z,0.00
2018-12-05T05:29:10.394Z,0.00
2018-12-05T05:30:10.346Z,0.00
2018-12-05T05:31:10.287Z,0.00
2018-12-05T05:32:10.255Z,0.00
2018-12-05T05:33:10.196Z,0.00
2018-12-05T05:34:10.150Z,0.00
2018-12-05T05:35:10.118Z,0.00
2018-12-05T05:36:10.054Z,0.00
2018-12-05T05:37:10.013Z,0.00
2018-12-05T05:38:09.983Z,0.00
2018-12-05T05:39:09.927Z,0.00
2018-12-05T05:40:09.877Z,0.00
2018-12-05T05:41:09.830Z,0.00
2018-12-05T05:42:09.777Z,0.00
2018-12-05T05:43:09.744Z,0.00
2018-12-05T05:44:10.337Z,0.00
2018-12-05T05:45:09.652Z,0.00
2018-12-05T05:46:09.594Z,0.00
2018-12-05T05:47:09.561Z,0.00
2018-12-05T05:48:09.510Z,0.00
2018-12-05T05:49:09.478Z,0.00
2018-12-05T05:50:09.433Z,0.00
2018-12-05T05:51:09.366Z,0.00
2018-12-05T05:52:09.341Z,0.00
2018-12-05T05:53:09.287Z,0.00
2018-12-05T05:54:09.231Z,0.00
2018-12-05T05:55:09.191Z,0.00
2018-12-05T05:56:09.137Z,0.00
2018-12-05T05:57:09.115Z,0.00
2018-12-05T05:58:09.054Z,0.00
2018-12-05T05:59:09.013Z,0.00
2018-12-05T06:00:08.963Z,0.00
2018-12-05T06:01:08.921Z,0.00
2018-12-05T06:02:08.884Z,0.00
2018-12-05T06:03:08.838Z,0.00
2018-12-05T06:04:08.771Z,0.00
2018-12-05T06:05:08.725Z,0.00
2018-12-05T06:06:08.703Z,0.00
2018-12-05T06:07:08.653Z,0.00
2018-12-05T06:08:08.589Z,0.00
2018-12-05T06:09:08.564Z,0.00
2018-12-05T06:10:08.497Z,0.00
2018-12-05T06:11:08.452Z,0.00
2018-12-05T06:12:08.427Z,0.00
2018-12-05T06:13:08.369Z,0.00
2018-12-05T06:14:08.323Z,0.00
2018-12-05T06:15:08.277Z,0.00
2018-12-05T06:16:08.223Z,0.00
2018-12-05T06:17:08.186Z,0.00
2018-12-05T06:18:08.153Z,0.00
2018-12-05T06:19:08.086Z,0.00
2018-12-05T06:20:08.040Z,0.00
2018-12-05T06:21:08.003Z,0.00
2018-12-05T06:22:07.961Z,0.00
2018-12-05T06:23:07.915Z,0.00
2018-12-05T06:24:07.880Z,0.00
2018-12-05T06:25:07.836Z,0.00
2018-12-05T06:26:07.773Z,0.00
2018-12-05T06:27:07.732Z,0.00
2018-12-05T06:28:07.683Z,0.00
2018-12-05T06:29:07.649Z,0.00
2018-12-05T06:30:07.595Z,0.00
2018-12-05T06:31:07.558Z,0.00
2018-12-05T06:32:07.512Z,0.00
2018-12-05T06:33:07.467Z,0.00
2018-12-05T06:34:07.399Z,0.00
2018-12-05T06:35:07.363Z,0.00
2018-12-05T06:36:07.323Z,0.00
2018-12-05T06:37:07.261Z,0.00
2018-12-05T06:38:07.238Z,0.00
2018-12-05T06:39:07.187Z,0.00
2018-12-05T06:40:07.135Z,0.00
2018-12-05T06:41:07.086Z,0.00
2018-12-05T06:42:07.045Z,0.00
2018-12-05T06:43:06.986Z,0.00
2018-12-05T06:44:06.953Z,0.00
2018-12-05T06:45:06.897Z,0.00
2018-12-05T06:46:06.872Z,0.00
2018-12-05T06:47:06.812Z,0.00
2018-12-05T06:48:06.779Z,0.00
2018-12-05T06:49:06.712Z,0.00
2018-12-05T06:50:06.687Z,0.00
2018-12-05T06:51:06.621Z,0.00
2018-12-05T06:52:06.593Z,0.00
2018-12-05T06:53:06.550Z,0.00
2018-12-05T06:54:06.504Z,0.00
2018-12-05T06:55:06.459Z,0.00
2018-12-05T06:56:06.447Z,0.00
2018-12-05T06:57:06.358Z,0.00
2018-12-05T06:58:06.321Z,0.00
2018-12-05T06:59:06.258Z,0.00
2018-12-05T07:00:06.208Z,0.00
2018-12-05T07:01:06.163Z,0.00
2018-12-05T07:02:06.116Z,0.00
2018-12-05T07:03:06.070Z,0.00
2018-12-05T07:04:06.037Z,0.00
2018-12-05T07:05:05.979Z,0.00
2018-12-05T07:06:05.964Z,0.00
2018-12-05T07:07:05.899Z,0.00
2018-12-05T07:08:05.854Z,0.00
2018-12-05T07:09:05.805Z,0.00
2018-12-05T07:10:05.758Z,0.00
2018-12-05T07:11:05.713Z,0.00
2018-12-05T07:12:05.673Z,0.00
2018-12-05T07:13:05.613Z,0.00
2018-12-05T07:14:05.581Z,0.00
2018-12-05T07:15:05.732Z,0.00
2018-12-05T07:16:05.487Z,0.00
2018-12-05T07:17:05.429Z,0.00
2018-12-05T07:18:05.404Z,0.00
2018-12-05T07:19:05.346Z,0.00
2018-12-05T07:20:05.304Z,0.00
2018-12-05T07:21:05.254Z,0.00
2018-12-05T07:22:05.221Z,0.00
2018-12-05T07:23:05.153Z,0.00
2018-12-05T07:24:05.116Z,0.00
2018-12-05T07:25:05.083Z,0.00
2018-12-05T07:26:05.016Z,0.00
2018-12-05T07:27:04.970Z,0.00
2018-12-05T07:28:04.946Z,0.00
2018-12-05T07:29:04.878Z,0.00
2018-12-05T07:30:04.842Z,0.00
2018-12-05T07:31:04.787Z,0.00
2018-12-05T07:32:04.750Z,0.00
2018-12-05T07:33:04.708Z,0.00
2018-12-05T07:34:04.662Z,0.00
2018-12-05T07:35:04.608Z,0.00
2018-12-05T07:36:04.558Z,0.00
2018-12-05T07:37:04.512Z,0.00
2018-12-05T07:38:04.479Z,0.00
2018-12-05T07:39:04.433Z,0.00
2018-12-05T07:40:04.387Z,0.00
2018-12-05T07:41:04.337Z,0.00
2018-12-05T07:42:04.304Z,0.00
2018-12-05T07:43:04.252Z,0.00
2018-12-05T07:44:04.212Z,0.00
2018-12-05T07:45:04.166Z,0.00
2018-12-05T07:46:04.112Z,0.00
2018-12-05T07:47:04.067Z,0.00
2018-12-05T07:48:04.016Z,4.00
2018-12-05T07:49:03.974Z,0.00
2018-12-05T07:50:03.937Z,4.00
2018-12-05T07:51:03.893Z,0.00
2018-12-05T07:52:03.841Z,4.00
2018-12-05T07:53:03.791Z,8.00
2018-12-05T07:54:03.747Z,4.00
2018-12-05T07:55:03.686Z,8.00
2018-12-05T07:56:03.655Z,12.00
2018-12-05T07:57:03.595Z,12.00
2018-12-05T07:58:03.561Z,12.00
2018-12-05T07:59:03.503Z,20.00
2018-12-05T08:00:03.457Z,20.00
2018-12-05T08:01:03.424Z,20.00
2018-12-05T08:02:03.373Z,28.00
2018-12-05T08:03:03.319Z,32.00
2018-12-05T08:04:03.301Z,36.00
2018-12-05T08:05:03.248Z,40.00
2018-12-05T08:06:03.203Z,44.00
2018-12-05T08:07:03.147Z,52.00
2018-12-05T08:08:03.098Z,60.00
2018-12-05T08:09:03.065Z,68.00
2018-12-05T08:10:03.006Z,72.00
2018-12-05T08:11:02.954Z,84.00
2018-12-05T08:12:02.927Z,92.00
2018-12-05T08:13:02.871Z,100.00
2018-12-05T08:14:02.813Z,112.00
2018-12-05T08:15:02.777Z,128.00
2018-12-05T08:16:02.744Z,144.00
2018-12-05T08:17:02.684Z,164.00
2018-12-05T08:18:02.639Z,184.00
2018-12-05T08:19:02.592Z,200.00
2018-12-05T08:20:02.549Z,224.00
2018-12-05T08:21:02.500Z,236.00
2018-12-05T08:22:02.446Z,260.00
2018-12-05T08:23:02.461Z,284.00
2018-12-05T08:24:02.368Z,312.00
2018-12-05T08:25:02.316Z,344.00
2018-12-05T08:26:02.284Z,368.00
2018-12-05T08:27:02.240Z,404.00
2018-12-05T08:28:02.194Z,448.00
2018-12-05T08:29:02.153Z,504.00
2018-12-05T08:30:02.105Z,576.00
2018-12-05T08:31:02.054Z,704.00
2018-12-05T08:32:01.996Z,756.00
2018-12-05T08:33:01.949Z,752.00
2018-12-05T08:34:01.904Z,792.00
2018-12-05T08:35:01.867Z,860.00
2018-12-05T08:36:01.817Z,900.00
2018-12-05T08:37:01.777Z,964.00
2018-12-05T08:38:01.724Z,1044.00
2018-12-05T08:39:01.697Z,1136.00
2018-12-05T08:40:01.629Z,1180.00
2018-12-05T08:41:01.587Z,1216.00
2018-12-05T08:42:01.550Z,1340.00
2018-12-05T08:43:01.491Z,2096.00
2018-12-05T08:44:01.458Z,2736.00
2018-12-05T08:45:01.412Z,2356.00
2018-12-05T08:46:01.367Z,1628.00
2018-12-05T08:47:01.320Z,1620.00
2018-12-05T08:48:01.275Z,2132.00
2018-12-05T08:49:01.209Z,2184.00
2018-12-05T08:50:01.188Z,2380.00
2018-12-05T08:51:01.139Z,2572.00
2018-12-05T08:52:01.095Z,2432.00
2018-12-05T08:53:01.048Z,2500.00
2018-12-05T08:54:00.981Z,2764.00
2018-12-05T08:55:00.961Z,2672.00
2018-12-05T08:56:00.911Z,2840.00
2018-12-05T08:57:00.858Z,3628.00
2018-12-05T08:58:00.816Z,4700.00
2018-12-05T08:59:00.778Z,4572.00
2018-12-05T09:00:00.717Z,3796.00
2018-12-05T09:01:00.684Z,3360.00
2018-12-05T09:02:00.634Z,3160.00
2018-12-05T09:03:00.590Z,2144.00
2018-12-05T09:04:00.571Z,2560.00
2018-12-05T09:05:00.507Z,2456.00
2018-12-05T09:06:00.446Z,4716.00
2018-12-05T09:07:00.401Z,3360.00
2018-12-05T09:08:00.348Z,4144.00
2018-12-05T09:09:00.311Z,3960.00
2018-12-05T09:10:00.267Z,4580.00
2018-12-05T09:11:00.235Z,4720.00
2018-12-05T09:12:00.204Z,4516.00
2018-12-05T09:13:00.146Z,4604.00
2018-12-05T09:14:00.088Z,5152.00
2018-12-05T09:15:00.044Z,5184.00
2018-12-05T09:16:00.011Z,4140.00
2018-12-05T09:16:59.968Z,3676.00
2018-12-05T09:17:59.910Z,4460.00
2018-12-05T09:18:59.925Z,8628.00
2018-12-05T09:19:59.822Z,12464.00
2018-12-05T09:20:59.788Z,13280.00
2018-12-05T09:21:59.746Z,15744.00
2018-12-05T09:22:59.688Z,18208.00
2018-12-05T09:23:59.686Z,18560.00
2018-12-05T09:24:59.591Z,19520.00
2018-12-05T09:25:59.565Z,20352.00
2018-12-05T09:26:59.520Z,19744.00
2018-12-05T09:27:59.472Z,20000.00
2018-12-05T09:28:59.427Z,21088.00
2018-12-05T09:29:59.378Z,20480.00
2018-12-05T09:30:59.353Z,20832.00
2018-12-05T09:31:59.301Z,21920.00
2018-12-05T09:32:59.271Z,22048.00
2018-12-05T09:33:59.220Z,22720.00
2018-12-05T09:34:59.164Z,22848.00
2018-12-05T09:35:59.143Z,21184.00
2018-12-05T09:36:59.080Z,19776.00
2018-12-05T09:37:59.062Z,20192.00
2018-12-05T09:38:59.019Z,20736.00
2018-12-05T09:39:58.965Z,21024.00
2018-12-05T09:40:58.929Z,21792.00
2018-12-05T09:41:58.890Z,20576.00
2018-12-05T09:42:58.860Z,21088.00
2018-12-05T09:43:58.811Z,21728.00
2018-12-05T09:44:58.768Z,12908.00
2018-12-05T09:45:58.743Z,18912.00
2018-12-05T09:46:58.676Z,11688.00
2018-12-05T09:47:58.637Z,9488.00
2018-12-05T09:48:58.609Z,19840.00
2018-12-05T09:49:58.571Z,24416.00
2018-12-05T09:50:58.516Z,24960.00
2018-12-05T09:51:58.505Z,25440.00
2018-12-05T09:52:58.449Z,25376.00
2018-12-05T09:53:58.399Z,25568.00
2018-12-05T09:54:58.379Z,25152.00
2018-12-05T09:55:58.339Z,25280.00
2018-12-05T09:56:58.301Z,26272.00
2018-12-05T09:57:58.262Z,25632.00
2018-12-05T09:58:58.222Z,25856.00
2018-12-05T09:59:58.186Z,27104.00
2018-12-05T10:00:58.140Z,27008.00
2018-12-05T10:01:58.097Z,26432.00
2018-12-05T10:02:58.068Z,25632.00
2018-12-05T10:03:58.019Z,26528.00
2018-12-05T10:04:58.017Z,26720.00
2018-12-05T10:05:57.933Z,25920.00
2018-12-05T10:06:57.893Z,26400.00
2018-12-05T10:07:57.870Z,28000.00
2018-12-05T10:08:57.824Z,27520.00
2018-12-05T10:09:57.799Z,26336.00
2018-12-05T10:10:57.749Z,28352.00
2018-12-05T10:11:57.715Z,30432.00
2018-12-05T10:12:57.666Z,29728.00
2018-12-05T10:13:57.643Z,28640.00
2018-12-05T10:14:57.591Z,29216.00
2018-12-05T10:15:57.562Z,30336.00
2018-12-05T10:16:57.516Z,29312.00
2018-12-05T10:17:57.500Z,30752.00
2018-12-05T10:18:57.449Z,30592.00
2018-12-05T10:19:57.414Z,28128.00
2018-12-05T10:20:57.392Z,24640.00
2018-12-05T10:21:57.366Z,16096.00
2018-12-05T10:22:57.309Z,11788.00
2018-12-05T10:23:57.279Z,10484.00
2018-12-05T10:24:57.221Z,9156.00
2018-12-05T10:25:57.214Z,8036.00
2018-12-05T10:26:57.167Z,7496.00
2018-12-05T10:27:57.122Z,7384.00
2018-12-05T10:28:57.091Z,7452.00
2018-12-05T10:29:57.041Z,7488.00
2018-12-05T10:30:57.008Z,7136.00
2018-12-05T10:31:56.957Z,5920.00
2018-12-05T10:32:56.924Z,5916.00
2018-12-05T10:33:56.878Z,5180.00
2018-12-05T10:34:56.851Z,5380.00
2018-12-05T10:35:56.799Z,7204.00
2018-12-05T10:36:56.779Z,7104.00
2018-12-05T10:37:56.733Z,7640.00
2018-12-05T10:38:56.697Z,7608.00
2018-12-05T10:39:56.659Z,7372.00
2018-12-05T10:40:56.612Z,7068.00
2018-12-05T10:41:56.592Z,7304.00
2018-12-05T10:42:56.541Z,7068.00
2018-12-05T10:43:56.498Z,6956.00
2018-12-05T10:44:56.464Z,7084.00
2018-12-05T10:45:56.398Z,7352.00
2018-12-05T10:46:56.373Z,6260.00
2018-12-05T10:47:56.347Z,6224.00
2018-12-05T10:48:56.273Z,5872.00
2018-12-05T10:49:56.252Z,5232.00
2018-12-05T10:50:56.222Z,4744.00
2018-12-05T10:51:56.169Z,4336.00
2018-12-05T10:52:56.125Z,5336.00
2018-12-05T10:53:56.083Z,5624.00
2018-12-05T10:54:56.042Z,5364.00
2018-12-05T10:55:56.001Z,6888.00
2018-12-05T10:56:55.958Z,7172.00
2018-12-05T10:57:55.905Z,7056.00
2018-12-05T10:58:55.868Z,5900.00
2018-12-05T10:59:55.825Z,6480.00
2018-12-05T11:00:55.774Z,6412.00
2018-12-05T11:01:55.737Z,6264.00
2018-12-05T11:02:55.707Z,6276.00
2018-12-05T11:03:55.665Z,6052.00
2018-12-05T11:04:55.611Z,6652.00
2018-12-05T11:05:55.573Z,6936.00
2018-12-05T11:06:55.534Z,6932.00
2018-12-05T11:07:55.488Z,6612.00
2018-12-05T11:08:55.456Z,6456.00
2018-12-05T11:09:55.394Z,6308.00
2018-12-05T11:10:55.371Z,5324.00
2018-12-05T11:11:55.316Z,5556.00
2018-12-05T11:12:55.288Z,5084.00
2018-12-05T11:13:55.250Z,5404.00
2018-12-05T11:14:55.195Z,6412.00
2018-12-05T11:15:55.163Z,6752.00
2018-12-05T11:16:55.101Z,6640.00
2018-12-05T11:17:55.062Z,6596.00
2018-12-05T11:18:55.024Z,6620.00
2018-12-05T11:19:54.987Z,6544.00
2018-12-05T11:20:54.931Z,6444.00
2018-12-05T11:21:54.898Z,6320.00
2018-12-05T11:22:54.863Z,6264.00
2018-12-05T11:23:54.828Z,6284.00
2018-12-05T11:24:54.763Z,6208.00
2018-12-05T11:25:54.733Z,6016.00
2018-12-05T11:26:54.702Z,5892.00
2018-12-05T11:27:54.649Z,5792.00
2018-12-05T11:28:54.602Z,5752.00
2018-12-05T11:29:54.554Z,5752.00
2018-12-05T11:30:54.524Z,5920.00
2018-12-05T11:31:54.477Z,6184.00
2018-12-05T11:32:54.429Z,6232.00
2018-12-05T11:33:54.400Z,5900.00
2018-12-05T11:34:54.366Z,5848.00
2018-12-05T11:35:54.323Z,5796.00
2018-12-05T11:36:54.280Z,5756.00
2018-12-05T11:37:54.227Z,5620.00
2018-12-05T11:38:54.176Z,5432.00
2018-12-05T11:39:54.155Z,5292.00
2018-12-05T11:40:54.096Z,5236.00
2018-12-05T11:41:54.060Z,5244.00
2018-12-05T11:42:54.022Z,5232.00
2018-12-05T11:43:53.968Z,5192.00
2018-12-05T11:44:53.937Z,5196.00
2018-12-05T11:45:53.884Z,5244.00
2018-12-05T11:46:53.855Z,5248.00
2018-12-05T11:47:53.815Z,5072.00
2018-12-05T11:48:53.779Z,4000.00
2018-12-05T11:49:53.720Z,5416.00
2018-12-05T11:50:53.698Z,5548.00
2018-12-05T11:51:53.672Z,5548.00
2018-12-05T11:52:53.597Z,5396.00
2018-12-05T11:53:53.561Z,5252.00
2018-12-05T11:54:53.539Z,5108.00
2018-12-05T11:55:53.481Z,5020.00
2018-12-05T11:56:53.431Z,4948.00
2018-12-05T11:57:53.391Z,4884.00
2018-12-05T11:58:53.341Z,4852.00
2018-12-05T11:59:53.308Z,4844.00
2018-12-05T12:00:53.270Z,4828.00
2018-12-05T12:01:53.238Z,4800.00
2018-12-05T12:02:53.190Z,4832.00
2018-12-05T12:03:53.141Z,4800.00
2018-12-05T12:04:53.091Z,4812.00
2018-12-05T12:05:53.070Z,4768.00
2018-12-05T12:06:53.008Z,4800.00
2018-12-05T12:07:52.974Z,4792.00
2018-12-05T12:08:52.931Z,4776.00
2018-12-05T12:09:52.910Z,4784.00
2018-12-05T12:10:52.863Z,4788.00
2018-12-05T12:11:52.813Z,4768.00
2018-12-05T12:12:52.763Z,4724.00
2018-12-05T12:13:52.736Z,4720.00
2018-12-05T12:14:52.677Z,4720.00
2018-12-05T12:15:52.647Z,4716.00
2018-12-05T12:16:52.613Z,4748.00
2018-12-05T12:17:52.576Z,4756.00
2018-12-05T12:18:52.525Z,4788.00
2018-12-05T12:19:52.482Z,4780.00
2018-12-05T12:20:52.434Z,4828.00
2018-12-05T12:21:52.407Z,4856.00
2018-12-05T12:22:52.363Z,4840.00
2018-12-05T12:23:53.277Z,4880.00
2018-12-05T12:24:52.281Z,4864.00
2018-12-05T12:25:52.232Z,4880.00
2018-12-05T12:26:52.718Z,4948.00
2018-12-05T12:27:52.145Z,4976.00
2018-12-05T12:28:52.109Z,4996.00
2018-12-05T12:29:52.064Z,5016.00
2018-12-05T12:30:52.033Z,5008.00
2018-12-05T12:31:51.992Z,4992.00
2018-12-05T12:32:51.937Z,4992.00
2018-12-05T12:33:51.900Z,5004.00
2018-12-05T12:34:51.848Z,5008.00
2018-12-05T12:35:51.821Z,4976.00
2018-12-05T12:36:51.766Z,5016.00
2018-12-05T12:37:51.723Z,4992.00
2018-12-05T12:38:51.682Z,4964.00
2018-12-05T12:39:51.649Z,4972.00
2018-12-05T12:40:51.618Z,4996.00
2018-12-05T12:41:51.577Z,5088.00
2018-12-05T12:42:51.521Z,4184.00
2018-12-05T12:43:51.552Z,4120.00
2018-12-05T12:44:51.449Z,3588.00
2018-12-05T12:45:51.417Z,3528.00
2018-12-05T12:46:51.376Z,3828.00
2018-12-05T12:47:51.325Z,4232.00